createdAt,value
2023-10-01T00:03:51.962Z,86.84
2023-10-01T00:08:55.068Z,86.93
2023-10-01T00:13:56.731Z,86.99
2023-10-01T00:19:00.620Z,87.91
2023-10-01T00:24:02.512Z,87.23
2023-10-01T00:29:04.991Z,88.17
2023-10-01T00:34:08.458Z,88.00
2023-10-01T00:39:10.397Z,88.12
2023-10-01T00:44:13.878Z,88.19
2023-10-01T00:49:16.239Z,87.73
2023-10-01T00:54:18.090Z,88.28
2023-10-01T00:59:19.780Z,88.00
2023-10-01T01:04:24.110Z,88.05
2023-10-01T01:09:25.854Z,88.73
2023-10-01T01:14:29.126Z,89.03
2023-10-01T01:19:31.585Z,88.82
2023-10-01T01:24:33.442Z,88.96
2023-10-01T01:29:35.449Z,89.11
2023-10-01T01:34:37.320Z,89.13
2023-10-01T01:39:55.654Z,89.35
2023-10-01T01:45:16.122Z,89.91
2023-10-01T01:50:28.519Z,89.56
2023-10-01T01:55:32.856Z,90.04
2023-10-01T02:00:48.548Z,90.24
2023-10-01T02:05:50.303Z,90.01
2023-10-01T02:10:53.860Z,89.92
2023-10-01T02:15:56.320Z,89.76
2023-10-01T02:20:58.432Z,90.03
2023-10-01T02:26:02.006Z,89.63
2023-10-01T02:31:08.101Z,90.08
2023-10-01T02:36:13.825Z,90.01
2023-10-01T02:41:16.303Z,90.30
2023-10-01T02:46:26.195Z,89.63
2023-10-01T02:51:33.929Z,88.74
2023-10-01T02:56:53.719Z,88.96
2023-10-01T03:01:56.540Z,89.08
2023-10-01T03:06:58.982Z,88.61
2023-10-01T03:12:20.275Z,87.78
2023-10-01T03:17:24.696Z,88.48
2023-10-01T03:22:33.035Z,88.02
2023-10-01T03:27:40.041Z,88.22
2023-10-01T03:32:41.928Z,86.92
2023-10-01T03:37:44.824Z,87.34
2023-10-01T03:42:51.949Z,87.25
2023-10-01T03:47:59.270Z,87.58
2023-10-01T03:53:01.149Z,87.15
2023-10-01T03:58:06.021Z,87.00
2023-10-01T04:03:09.505Z,86.96
2023-10-01T04:08:15.141Z,86.65
2023-10-01T04:13:22.270Z,86.69
2023-10-01T04:18:25.494Z,86.81
2023-10-01T04:23:36.606Z,86.27
2023-10-01T04:28:45.182Z,86.25
2023-10-01T04:33:51.911Z,86.47
2023-10-01T04:39:01.376Z,86.50
2023-10-01T04:44:09.367Z,86.07
2023-10-01T04:49:37.039Z,85.59
2023-10-01T04:54:41.559Z,85.31
2023-10-01T04:59:58.716Z,85.06
2023-10-01T05:05:11.172Z,85.32
2023-10-01T05:10:14.363Z,85.26
2023-10-01T05:15:19.323Z,84.26
2023-10-01T05:20:21.102Z,84.24
2023-10-01T05:25:26.204Z,83.90
2023-10-01T05:30:37.709Z,83.35
2023-10-01T05:35:45.820Z,82.96
2023-10-01T05:40:53.497Z,82.62
2023-10-01T05:46:02.633Z,82.51
2023-10-01T05:51:07.659Z,82.27
2023-10-01T05:56:20.517Z,81.71
2023-10-01T06:01:23.262Z,81.47
2023-10-01T06:06:25.807Z,80.83
2023-10-01T06:11:43.275Z,80.04
2023-10-01T06:16:45.074Z,79.27
2023-10-01T06:21:48.258Z,78.65
2023-10-01T06:26:52.100Z,78.02
2023-10-01T06:31:54.425Z,77.59
2023-10-01T06:37:03.052Z,78.34
2023-10-01T06:42:21.575Z,77.63
2023-10-01T06:47:27.214Z,77.15
2023-10-01T06:52:30.259Z,77.80
2023-10-01T06:57:34.807Z,77.19
2023-10-01T07:02:37.573Z,77.24
2023-10-01T07:07:42.527Z,76.49
2023-10-01T07:12:59.066Z,76.69
2023-10-01T07:18:14.801Z,76.04
2023-10-01T07:23:20.105Z,74.48
2023-10-01T07:28:21.862Z,73.72
2023-10-01T07:33:23.860Z,73.87
2023-10-01T07:38:27.891Z,72.67
2023-10-01T07:43:31.100Z,71.09
2023-10-01T07:48:33.281Z,70.57
2023-10-01T07:53:35.068Z,70.21
2023-10-01T07:58:52.355Z,68.72
2023-10-01T08:03:57.464Z,66.71
2023-10-01T08:09:00.615Z,66.34
2023-10-01T08:14:06.803Z,65.50
2023-10-01T08:19:12.763Z,65.27
2023-10-01T08:24:19.470Z,64.50
2023-10-01T08:29:21.151Z,63.99
2023-10-01T08:34:25.801Z,63.66
2023-10-01T08:39:35.188Z,61.99
2023-10-01T08:44:48.015Z,59.27
2023-10-01T08:49:51.133Z,58.55
2023-10-01T08:54:57.431Z,57.03
2023-10-01T09:00:01.172Z,56.76
2023-10-01T09:05:09.175Z,57.17
2023-10-01T09:10:19.193Z,56.72
2023-10-01T09:15:39.257Z,56.46
2023-10-01T09:21:01.500Z,56.97
2023-10-01T09:26:03.672Z,56.09
2023-10-01T09:31:24.318Z,55.92
2023-10-01T09:36:36.562Z,55.66
2023-10-01T09:41:44.589Z,55.51
2023-10-01T09:46:46.346Z,55.60
2023-10-01T09:51:53.895Z,55.84
2023-10-01T09:56:57.879Z,54.91
2023-10-01T10:02:04.205Z,54.51
2023-10-01T10:07:09.181Z,54.25
2023-10-01T10:12:10.893Z,53.63
2023-10-01T10:17:18.413Z,53.14
2023-10-01T10:22:20.157Z,51.77
2023-10-01T10:27:28.778Z,51.96
2023-10-01T10:32:43.521Z,51.46
2023-10-01T10:37:46.572Z,52.07
2023-10-01T10:42:48.331Z,50.51
2023-10-01T10:48:07.805Z,49.54
2023-10-01T10:53:44.511Z,49.47
2023-10-01T10:58:52.012Z,49.69
2023-10-01T11:03:58.210Z,49.58
2023-10-01T11:09:00.319Z,49.48
2023-10-01T11:14:02.273Z,48.24
2023-10-01T11:19:15.325Z,49.42
2023-10-01T11:24:18.059Z,49.37
2023-10-01T11:29:23.513Z,49.88
2023-10-01T11:34:28.049Z,48.42
2023-10-01T11:39:50.463Z,45.15
2023-10-01T11:44:53.945Z,44.60
2023-10-01T11:50:08.522Z,43.26
2023-10-01T11:55:22.939Z,43.08
2023-10-01T12:00:42.904Z,42.46
2023-10-01T12:05:47.559Z,40.30
2023-10-01T12:10:52.671Z,42.61
2023-10-01T12:15:54.609Z,43.09
2023-10-01T12:20:57.453Z,44.38
2023-10-01T12:26:19.064Z,44.02
2023-10-01T12:31:24.818Z,44.45
2023-10-01T12:36:33.450Z,44.63
2023-10-01T12:41:55.484Z,43.59
2023-10-01T12:47:02.091Z,43.01
2023-10-01T12:52:05.205Z,42.67
2023-10-01T12:57:10.764Z,42.43
2023-10-01T13:02:29.339Z,41.64
2023-10-01T13:07:37.152Z,42.22
2023-10-01T13:12:58.769Z,41.84
2023-10-01T13:18:02.630Z,42.04
2023-10-01T13:23:11.051Z,41.96
2023-10-01T13:28:20.249Z,40.81
2023-10-01T13:33:24.636Z,41.20
2023-10-01T13:38:28.470Z,40.72
2023-10-01T13:43:58.246Z,41.26
2023-10-01T13:49:18.557Z,40.71
2023-10-01T13:54:38.973Z,40.47
2023-10-01T13:59:59.328Z,40.50
2023-10-01T14:05:19.648Z,39.54
2023-10-01T14:10:21.568Z,39.17
2023-10-01T14:15:24.758Z,39.71
2023-10-01T14:20:43.715Z,41.58
2023-10-01T14:26:15.194Z,41.63
2023-10-01T14:31:36.095Z,41.92
2023-10-01T14:36:43.749Z,41.47
2023-10-01T14:41:47.207Z,41.15
2023-10-01T14:46:49.873Z,40.62
2023-10-01T14:51:55.210Z,40.32
2023-10-01T14:56:57.990Z,40.97
2023-10-01T15:02:00.099Z,43.49
2023-10-01T15:07:02.270Z,43.91
2023-10-01T15:12:07.685Z,43.64
2023-10-01T15:17:18.677Z,43.82
2023-10-01T15:22:21.133Z,43.84
2023-10-01T15:27:26.356Z,43.75
2023-10-01T15:32:31.668Z,43.50
2023-10-01T15:37:34.346Z,42.83
2023-10-01T15:42:37.537Z,42.60
2023-10-01T15:47:47.006Z,43.22
2023-10-01T15:52:51.071Z,42.98
2023-10-01T15:57:56.844Z,43.28
2023-10-01T16:03:11.222Z,43.88
2023-10-01T16:08:19.893Z,44.00
2023-10-01T16:13:29.757Z,44.66
2023-10-01T16:18:33.584Z,44.57
2023-10-01T16:23:39.468Z,45.07
2023-10-01T16:28:42.953Z,45.14
2023-10-01T16:33:47.061Z,45.79
2023-10-01T16:38:55.141Z,46.08
2023-10-01T16:44:00.338Z,46.60
2023-10-01T16:49:04.885Z,46.57
2023-10-01T16:54:22.484Z,46.58
2023-10-01T16:59:25.238Z,46.83
2023-10-01T17:04:32.512Z,47.18
2023-10-01T17:09:35.418Z,47.46
2023-10-01T17:14:39.246Z,47.93
2023-10-01T17:19:41.203Z,48.44
2023-10-01T17:24:47.798Z,48.83
2023-10-01T17:29:50.702Z,48.94
2023-10-01T17:34:53.562Z,49.05
2023-10-01T17:40:01.893Z,49.59
2023-10-01T17:45:04.270Z,49.76
2023-10-01T17:50:15.015Z,50.19
2023-10-01T17:55:27.373Z,50.99
2023-10-01T18:00:43.072Z,50.90
2023-10-01T18:06:00.191Z,51.10
2023-10-01T18:11:11.026Z,51.73
2023-10-01T18:16:27.005Z,51.50
2023-10-01T18:21:30.056Z,51.66
2023-10-01T18:26:32.212Z,52.01
2023-10-01T18:31:35.041Z,52.64
2023-10-01T18:36:36.789Z,53.61
2023-10-01T18:41:42.554Z,54.63
2023-10-01T18:46:44.383Z,55.45
2023-10-01T18:51:49.042Z,56.23
2023-10-01T18:56:52.228Z,56.82
2023-10-01T19:01:58.042Z,56.92
2023-10-01T19:07:00.315Z,57.41
2023-10-01T19:12:02.012Z,58.08
2023-10-01T19:17:03.940Z,57.83
2023-10-01T19:22:11.943Z,57.72
2023-10-01T19:27:13.850Z,57.25
2023-10-01T19:32:15.566Z,56.62
2023-10-01T19:37:17.445Z,57.20
2023-10-01T19:42:25.182Z,57.40
2023-10-01T19:47:26.988Z,57.39
2023-10-01T19:52:29.951Z,57.86
2023-10-01T19:57:41.069Z,58.35
2023-10-01T20:02:45.751Z,58.73
2023-10-01T20:07:50.664Z,59.52
2023-10-01T20:12:53.870Z,60.19
2023-10-01T20:18:08.832Z,60.62
2023-10-01T20:23:10.607Z,60.40
2023-10-01T20:28:12.300Z,60.64
2023-10-01T20:33:16.308Z,61.06
2023-10-01T20:38:33.797Z,61.30
2023-10-01T20:43:35.663Z,61.72
2023-10-01T20:48:41.579Z,62.34
2023-10-01T20:53:44.296Z,62.46
2023-10-01T20:58:46.621Z,62.64
2023-10-01T21:03:51.804Z,62.87
2023-10-01T21:08:53.522Z,62.98
2023-10-01T21:14:01.752Z,63.49
2023-10-01T21:19:04.320Z,63.22
2023-10-01T21:24:10.126Z,63.26
2023-10-01T21:29:19.829Z,63.12
2023-10-01T21:34:21.753Z,63.13
2023-10-01T21:39:24.487Z,63.63
2023-10-01T21:44:27.864Z,63.82
2023-10-01T21:49:30.950Z,63.20
2023-10-01T21:54:33.168Z,62.70
2023-10-01T21:59:39.252Z,62.34
2023-10-01T22:04:49.214Z,62.04
2023-10-01T22:09:54.836Z,62.50
2023-10-01T22:14:56.558Z,62.46
2023-10-01T22:19:58.576Z,62.29
2023-10-01T22:25:00.302Z,63.26
2023-10-01T22:30:02.562Z,63.51
2023-10-01T22:35:09.036Z,63.36
2023-10-01T22:40:13.175Z,64.05
2023-10-01T22:45:29.948Z,65.21
2023-10-01T22:50:32.122Z,65.54
2023-10-01T22:55:34.861Z,66.11
2023-10-01T23:00:38.176Z,67.93
2023-10-01T23:05:40.725Z,69.41
2023-10-01T23:10:43.133Z,69.53
2023-10-01T23:15:50.007Z,69.98
2023-10-01T23:20:54.567Z,70.95
2023-10-01T23:26:06.494Z,71.78
2023-10-01T23:31:13.169Z,71.90
2023-10-01T23:36:15.629Z,72.27
2023-10-01T23:41:29.612Z,72.81
2023-10-01T23:46:34.563Z,73.10
2023-10-01T23:51:42.840Z,73.49
2023-10-01T23:56:44.654Z,74.11
